Flight Track Log - Related Links

Times and Time Zones

All times are in EDT time to prevent confusion due to time zone crossing. See the NKS212 flight status page for this flight to view local times or setup timezone preferences in your user account.

Time Position Orientation Groundspeed Altitude Reporting Facility
EDT Latitude Longitude Course Direction KTS MPH feet Rate Location/Type
Fri 04:30:06 PM 18.2932 -65.2376 290° West 307 353 9,500  Level FlightAware ADS-B (TNCM / SXM)
Fri 04:31:06 PM 18.3135 -65.3326 281° West 356 410 11,500 1,955 Climbing FlightAware ADS-B (TNCM / SXM)
Fri 04:31:35 PM 18.3243 -65.3829 291° West 374 430 12,400 2,250 Climbing FlightAware ADS-B (TNCM / SXM)
Fri 04:31:46 PM 18.3337 -65.4000 303° West 371 427 13,000 2,714 Climbing FlightAware ADS-B (TNCM / SXM)
Fri 04:32:17 PM 18.3676 -65.4438 310° West 376 433 14,300 2,308 Climbing FlightAware ADS-B (TNCM / SXM)
Fri 04:32:38 PM 18.3889 -65.4715 309° West 382 440 15,000 2,178 Climbing FlightAware ADS-B (TNCM / SXM)
Fri 04:34:32 PM 18.5175 -65.6507 307° West 405 466 19,200 2,155 Climbing FlightAware ADS-B (TNCM / SXM)
Fri 04:35:00 PM 18.5462 -65.6914 307° West 413 475 20,100 1,843 Climbing FlightAware ADS-B (TNCM / SXM)
Fri 04:36:52 PM 18.6764 -65.8753 307° West 413 475 23,500 1,808 Climbing FlightAware ADS-B (TNCM / SXM)
Fri 04:37:26 PM 18.7199 -65.9365 307° West 433 498 24,500 1,558 Climbing FlightAware ADS-B (TNCM / SXM)
Fri 04:38:09 PM 18.7733 -66.0116 307° West 434 499 25,500 1,500 Climbing FlightAware ADS-B (TNCM / SXM)
Fri 04:38:38 PM 18.8070 -66.0591 307° West 442 509 26,300 1,485 Climbing FlightAware ADS-B (TNCM / SXM)
Fri 04:39:46 PM 18.8833 -66.1667 307° West 440 506 27,900 1,395 Climbing San Juan Center
Fri 04:40:47 PM 18.9500 -66.2667 305° West 450 518 29,300 1,240 Climbing San Juan Center
Fri 04:41:47 PM 19.0333 -66.3833 307° West 460 529 30,400 1,200 Climbing San Juan Center
Fri 04:42:47 PM 19.1000 -66.4833 305° West 460 529 31,700 1,500 Climbing San Juan Center
Fri 04:43:47 PM 19.1833 -66.6000 307° West 440 506 33,400 1,500 Climbing San Juan Center
Fri 04:44:47 PM 19.2500 -66.7000 305° West 450 518 34,700 1,100 Climbing San Juan Center
Fri 04:45:47 PM 19.3333 -66.8000 311° West 450 518 35,600 942 Climbing San Juan Center
Fri 04:46:48 PM 19.4000 -66.9167 301° West 450 518 36,600 1,200 Climbing San Juan Center
Fri 04:47:47 PM 19.4833 -67.0167 311° West 440 506 38,000 700 Climbing San Juan Center
Fri 04:48:48 PM 19.5500 -67.1167 305° West 440 506 38,000  Level San Juan Center
Fri 04:49:48 PM 19.6167 -67.2167 305° West 430 495 38,000  Level San Juan Center
Fri 04:50:48 PM 19.7000 -67.3167 312° West 440 506 38,000  Level San Juan Center
Fri 04:51:48 PM 19.7667 -67.4333 301° West 430 495 38,000  Level San Juan Center
Fri 04:52:48 PM 19.8333 -67.5333 305° West 430 495 38,000  Level San Juan Center
Fri 04:53:48 PM 19.9167 -67.6333 312° West 430 495 38,000  Level San Juan Center
Fri 04:54:48 PM 19.9833 -67.7333 305° West 430 495 38,000  Level San Juan Center
Fri 04:57:05 PM 20.1547 -67.9767 307° West 431 496 38,000  Level Miami Center
Fri 04:58:07 PM 20.2247 -68.0814 305° West 431 496 38,000  Level Miami Center
Fri 04:59:08 PM 20.3089 -68.2072 306° West 431 496 38,000  Level Miami Center
Fri 05:00:11 PM 20.3717 -68.3172 301° West 432 497 38,000  Level Miami Center
Fri 05:01:13 PM 20.4333 -68.4289 301° West 433 498 38,000  Level Miami Center
Fri 05:02:15 PM 20.4961 -68.5386 301° West 433 498 38,000  Level Miami Center
Fri 05:03:17 PM 20.5589 -68.6486 301° West 433 498 38,000  Level Miami Center
Fri 05:04:19 PM 20.6211 -68.7589 301° West 433 498 38,000  Level Miami Center
Fri 05:05:21 PM 20.6847 -68.8692 302° West 433 498 38,000  Level Miami Center
Fri 05:06:23 PM 20.7600 -69.0019 301° West 433 498 38,000  Level Miami Center
Fri 05:07:25 PM 20.8231 -69.1133 301° West 434 499 38,000  Level Miami Center
Fri 05:08:27 PM 20.8869 -69.2250 301° West 435 501 38,000  Level Miami Center
Fri 05:09:29 PM 20.9500 -69.3369 301° West 435 501 38,000  Level Miami Center
Fri 05:10:31 PM 21.0139 -69.4478 302° West 436 502 38,000  Level Miami Center
Fri 05:11:33 PM 21.0769 -69.5594 301° West 436 502 38,000  Level Miami Center
Fri 05:12:35 PM 21.1531 -69.6942 301° West 437 503 38,000  Level Miami Center
Fri 05:13:37 PM 21.2169 -69.8083 301° West 440 506 38,000  Level Miami Center
Fri 05:14:39 PM 21.2797 -69.9219 301° West 440 506 38,000  Level Miami Center
Fri 05:15:41 PM 21.3436 -70.0344 301° West 441 507 38,000  Level Miami Center
Fri 05:16:43 PM 21.4067 -70.1478 301° West 441 507 38,000  Level Miami Center
Fri 05:17:45 PM 21.4825 -70.2842 301° West 441 507 38,000  Level Miami Center
Fri 05:18:47 PM 21.5461 -70.3981 301° West 441 507 38,000  Level Miami Center
Fri 05:19:49 PM 21.6100 -70.5111 301° West 442 509 38,000  Level Miami Center
Fri 05:20:51 PM 21.6731 -70.6264 300° West 444 511 38,000  Level Miami Center
Fri 05:21:53 PM 21.7369 -70.7411 301° West 446 513 38,000  Level Miami Center
Fri 05:23:57 PM 21.8772 -70.9936 300° West 446 513 38,000  Level Miami Center
Fri 05:24:59 PM 21.9403 -71.1086 301° West 447 514 38,000  Level Miami Center
Fri 05:26:01 PM 22.0031 -71.2244 300° West 447 514 38,000  Level Miami Center
Fri 05:27:03 PM 22.0669 -71.3397 301° West 447 514 38,000  Level Miami Center
Fri 05:28:06 PM 22.1297 -71.4533 301° West 447 514 38,000  Level Miami Center
Fri 05:29:08 PM 22.2039 -71.5911 300° West 447 514 38,000  Level Miami Center
Fri 05:30:10 PM 22.2664 -71.7056 301° West 446 513 38,000  Level Miami Center
Fri 05:31:12 PM 22.3286 -71.8206 300° West 446 513 38,000  Level Miami Center
Fri 05:32:14 PM 22.3919 -71.9358 301° West 446 513 38,000  Level Miami Center
Fri 05:33:16 PM 22.4539 -72.0514 300° West 446 513 38,000  Level Miami Center
Fri 05:34:18 PM 22.5164 -72.1672 300° West 446 513 38,000  Level Miami Center
Fri 05:35:20 PM 22.5911 -72.3056 300° West 446 513 38,000  Level Miami Center
Fri 05:36:22 PM 22.6531 -72.4217 300° West 445 512 38,000  Level Miami Center
Fri 05:37:24 PM 22.7153 -72.5367 300° West 445 512 38,000  Level Miami Center
Fri 05:38:26 PM 22.7753 -72.6525 299° West 444 511 38,000  Level Miami Center
Fri 05:39:28 PM 22.8372 -72.7683 300° West 444 511 38,000  Level Miami Center
Fri 05:40:30 PM 22.9008 -72.8831 301° West 444 511 38,000  Level Miami Center
Fri 05:41:32 PM 22.9736 -73.0211 300° West 443 510 38,000  Level Miami Center
Fri 05:42:34 PM 23.0319 -73.1317 300° West 443 510 38,000  Level Miami Center
Fri 05:43:36 PM 23.0939 -73.2483 300° West 443 510 38,000 48 Level Miami Center
Fri 05:44:38 PM 23.1567 -73.3658 300° West 444 511 38,100  Climbing Miami Center
Fri 05:45:41 PM 23.2294 -73.5056 300° West 444 511 38,000 -48 Descending Miami Center
Fri 05:46:43 PM 23.2906 -73.6208 300° West 444 511 38,000  Level Miami Center
Fri 05:47:45 PM 23.3508 -73.7361 300° West 443 510 38,000  Level Miami Center
Fri 05:48:47 PM 23.4108 -73.8508 300° West 441 507 38,000  Level Miami Center
Fri 05:49:49 PM 23.4364 -73.9811 282° West 439 505 38,000  Level Miami Center
Fri 05:50:51 PM 23.4336 -74.1164 269° West 443 510 38,000 -290 Level Miami Center
Fri 05:51:53 PM 23.4328 -74.2769 270° West 443 510 37,400 -774 Descending Miami Center
Fri 05:52:55 PM 23.4308 -74.4122 269° West 443 510 36,400 -677 Descending Miami Center
Fri 05:53:57 PM 23.4314 -74.5503 270° West 449 517 36,000 -194 Descending Miami Center
Fri 05:54:59 PM 23.4328 -74.6878 271° West 454 522 36,000  Level Miami Center
Fri 05:56:01 PM 23.4342 -74.8247 271° West 454 522 36,000  Level Miami Center
Fri 05:57:03 PM 23.4372 -74.9597 271° West 452 520 36,000  Level Miami Center
Fri 05:58:05 PM 23.4400 -75.0933 271° West 447 514 36,000  Level Miami Center
Fri 05:59:07 PM 23.4453 -75.2539 272° West 445 512 36,000  Level Miami Center
Fri 06:00:09 PM 23.4494 -75.3872 272° West 445 512 36,000  Level Miami Center
Fri 06:01:11 PM 23.4539 -75.5211 272° West 445 512 36,000  Level Miami Center
Fri 06:02:12 PM 23.4672 -75.6556 276° West 449 517 36,000  Level Miami Center
Fri 06:03:14 PM 23.5114 -75.7761 292° West 449 517 36,000  Level Miami Center
Fri 06:04:16 PM 23.5939 -75.9214 302° West 450 518 36,000  Level Miami Center
Fri 06:05:18 PM 23.6528 -76.0406 298° West 448 516 36,000  Level Miami Center
Fri 06:06:20 PM 23.7128 -76.1608 299° West 449 517 36,000  Level Miami Center
Fri 06:07:22 PM 23.7750 -76.2825 299° West 452 520 36,000  Level Miami Center
Fri 06:08:24 PM 23.8367 -76.4050 299° West 455 524 36,000  Level Miami Center
Fri 06:09:26 PM 23.8983 -76.5283 299° West 460 529 36,000  Level Miami Center
Fri 06:11:29 PM 24.1072 -76.7322 307° West 460 529 36,000  Level Miami Center
Fri 06:12:31 PM 24.2092 -76.8175 323° Northwest 460 529 36,000 15 Level Miami Center
Fri 06:18:03 PM 24.7271 -77.4057 313° West 462 532 36,100  Climbing FlightAware ADS-B
Fri 06:19:06 PM 24.8008 -77.4911 313° West 460 529 36,000 -42 Descending FlightAware ADS-B
Fri 06:20:25 PM 24.9346 -77.6449 313° West 457 526 36,000  Level FlightAware ADS-B
Fri 06:21:40 PM 25.0285 -77.7629 305° West 457 526 36,000  Level FlightAware ADS-B
Fri 06:22:57 PM 25.1156 -77.8921 307° West 457 526 36,000 -1,474 Level FlightAware ADS-B (KEYW)
Fri 06:26:25 PM 25.3589 -78.2943 303° West 435 501 29,000 -2,008 Descending FlightAware ADS-B (KEYW)
Fri 06:26:56 PM 25.3926 -78.3535 303° West 433 498 28,000 -1,935 Descending FlightAware ADS-B (KEYW)
Fri 06:27:27 PM 25.4223 -78.4124 298° West 414 476 27,000 -1,757 Descending FlightAware ADS-B (KEYW)
Fri 06:29:57 PM 25.5418 -78.6953 290° West 413 475 22,700 -1,935 Descending FlightAware ADS-B (KEYW)
Fri 06:31:04 PM 25.5814 -78.8156 290° West 413 475 20,000 -2,279 Descending Miami Center
Fri 06:32:06 PM 25.6214 -78.9336 291° West 413 475 17,800 -2,129 Descending Miami Center
Fri 06:33:08 PM 25.6600 -79.0456 291° West 396 456 15,600 -2,081 Descending Miami Center
Fri 06:34:10 PM 25.6939 -79.1531 289° West 381 438 13,500 -2,341 Descending Miami Center
Fri 06:35:11 PM 25.7353 -79.2781 290° West 363 418 10,800 -2,439 Descending Miami Center
Fri 06:36:13 PM 25.7683 -79.3803 290° West 356 410 8,500 -2,222 Descending Miami Center
Fri 06:36:32 PM 25.7792 -79.4194 287° West 348 400 7,800 -1,607 Descending Miami Center
Fri 06:37:09 PM 25.8008 -79.4786 292° West 341 392 7,000 -857 Descending Miami Center
Fri 06:38:17 PM 25.8303 -79.5667 290° West 306 352 6,300 -512 Descending Miami Center
Fri 06:39:18 PM 25.8547 -79.6417 290° West 264 304 5,900 -157 Descending Miami Center
Fri 06:40:12 PM 25.8839 -79.7092 296° West 240 276 6,000 52 Climbing Miami Center
Fri 06:41:13 PM 25.9153 -79.7808 296° West 240 276 6,000  Level Miami Center
Fri 06:42:08 PM 25.9389 -79.8381 295° West 242 278 6,000 -85 Level Miami Center
Fri 06:42:24 PM 25.9467 -79.8564 295° West 242 278 5,900  Descending Miami Center
Fri 06:43:10 PM 25.9681 -79.9119 293° West 239 275 6,000  Climbing Miami Center
Fri 06:43:26 PM 25.9750 -79.9231 305° West 242 278 5,900 -78 Descending Miami Center
Fri 06:44:27 PM 26.0086 -79.9856 301° West 239 275 5,900 57 Level Miami Center
Fri 06:45:11 PM 26.0381 -80.0356 303° West 230 265 6,000  Climbing Miami Center
Fri 06:45:29 PM 26.0442 -80.0458 303° West 236 272 5,900  Descending Miami Center
Fri 06:46:12 PM 26.0742 -80.0939 305° West 235 270 6,000  Climbing Miami Center
Fri 06:46:31 PM 26.0803 -80.1061 299° West 236 272 5,900  Descending Miami Center
Fri 06:47:19 PM 26.1158 -80.1667 303° West 239 275 6,000  Climbing Miami Center
Fri 06:47:33 PM 26.1164 -80.1658 53° Northeast 236 272 5,900 -1,075 Descending Miami Center
Fri 06:48:26 PM 26.1492 -80.2364 297° West 231 266 4,800 -1,000 Descending Miami Center
Fri 06:49:27 PM 26.1550 -80.3089 275° West 228 262 4,000 -443 Descending Miami Center
Fri 06:50:28 PM 26.1403 -80.3750 256° West 231 266 3,900 -169 Descending Miami Center
Fri 06:50:38 PM 26.1372 -80.3789 229° Southwest 233 268 3,800 -590 Descending Miami Center
Fri 06:51:29 PM 26.0928 -80.3644 164° South 191 220 3,300 -581 Descending Miami Center
Fri 06:51:40 PM 26.0906 -80.3611 127° Southeast 198 228 3,200 -873 Descending Miami Center
Fri 06:52:24 PM 26.0767 -80.3189 110° East 177 204 2,500 -885 Descending Miami Center
Fri 06:52:41 PM 26.0781 -80.3094 81° East 176 203 2,300 -984 Descending Miami Center
Fri 06:53:25 PM 26.0764 -80.2611 92° East 178 205 1,500 -871 Descending Miami Center
Fri 06:53:43 PM 26.0778 -80.2544 77° East 177 204 1,400 -716 Descending Miami Center
Fri 06:54:32 PM 26.0775 -80.2100 90° East 131 151 700 -871 Descending Miami Center
Fri 06:54:45 PM 26.0772 -80.1994 92° East 147 169 500 28,622 Descending Miami Center
Fri 06:55:46 PM 26.0761 -80.1611 92° East 127 146 36,000 34,918 Climbing Miami Center
Fri 06:57:00 PM 26.0667 -80.1500 77° East  Level FlightAware Approximate

Login

Don't have an account? Register now (free) for customized features, flight alerts, and more!